sensor_id;sensor_type;location;lat;lon;timestamp;P1;durP1;ratioP1;P2;durP2;ratioP2
71975;SDS011;60680;52.182;5.398;2022-09-09T00:01:11;0.70;;;0.50;;
71975;SDS011;60680;52.182;5.398;2022-09-09T00:03:56;1.45;;;0.30;;
71975;SDS011;60680;52.182;5.398;2022-09-09T00:06:32;2.53;;;0.30;;
71975;SDS011;60680;52.182;5.398;2022-09-09T00:09:13;0.47;;;0.20;;
71975;SDS011;60680;52.182;5.398;2022-09-09T00:11:43;2.55;;;0.73;;
71975;SDS011;60680;52.182;5.398;2022-09-09T00:14:25;2.10;;;0.40;;
71975;SDS011;60680;52.182;5.398;2022-09-09T00:17:00;2.83;;;0.30;;
71975;SDS011;60680;52.182;5.398;2022-09-09T00:19:33;1.30;;;0.40;;
71975;SDS011;60680;52.182;5.398;2022-09-09T00:30:12;0.93;;;0.40;;
71975;SDS011;60680;52.182;5.398;2022-09-09T00:32:38;1.83;;;0.40;;
71975;SDS011;60680;52.182;5.398;2022-09-09T00:37:38;1.92;;;0.50;;
71975;SDS011;60680;52.182;5.398;2022-09-09T00:40:13;1.50;;;0.30;;
71975;SDS011;60680;52.182;5.398;2022-09-09T00:42:47;1.05;;;0.38;;
71975;SDS011;60680;52.182;5.398;2022-09-09T00:48:22;2.37;;;0.53;;
71975;SDS011;60680;52.182;5.398;2022-09-09T00:51:09;1.08;;;0.60;;
71975;SDS011;60680;52.182;5.398;2022-09-09T00:56:25;1.25;;;0.55;;
71975;SDS011;60680;52.182;5.398;2022-09-09T00:59:07;2.38;;;0.50;;
71975;SDS011;60680;52.182;5.398;2022-09-09T01:01:51;2.30;;;0.60;;
71975;SDS011;60680;52.182;5.398;2022-09-09T01:04:22;4.00;;;0.80;;
71975;SDS011;60680;52.182;5.398;2022-09-09T01:07:00;2.38;;;0.70;;
71975;SDS011;60680;52.182;5.398;2022-09-09T01:09:46;3.50;;;0.90;;
71975;SDS011;60680;52.182;5.398;2022-09-09T01:12:24;2.47;;;0.80;;
71975;SDS011;60680;52.182;5.398;2022-09-09T01:15:26;4.57;;;0.60;;
71975;SDS011;60680;52.182;5.398;2022-09-09T01:18:00;2.45;;;0.63;;
71975;SDS011;60680;52.182;5.398;2022-09-09T01:20:37;2.95;;;1.00;;
71975;SDS011;60680;52.182;5.398;2022-09-09T01:23:33;2.33;;;0.77;;
71975;SDS011;60680;52.182;5.398;2022-09-09T01:26:15;1.80;;;0.90;;
71975;SDS011;60680;52.182;5.398;2022-09-09T01:28:50;2.80;;;0.90;;
71975;SDS011;60680;52.182;5.398;2022-09-09T01:31:26;2.80;;;0.60;;
71975;SDS011;60680;52.182;5.398;2022-09-09T01:34:13;1.30;;;0.65;;
71975;SDS011;60680;52.182;5.398;2022-09-09T01:39:17;2.53;;;0.75;;
71975;SDS011;60680;52.182;5.398;2022-09-09T01:41:43;2.67;;;0.77;;
71975;SDS011;60680;52.182;5.398;2022-09-09T01:44:10;5.32;;;1.17;;
71975;SDS011;60680;52.182;5.398;2022-09-09T01:46:37;1.60;;;0.70;;
71975;SDS011;60680;52.182;5.398;2022-09-09T01:49:06;5.28;;;1.27;;
71975;SDS011;60680;52.182;5.398;2022-09-09T01:51:35;2.15;;;0.82;;
71975;SDS011;60680;52.182;5.398;2022-09-09T01:54:04;2.78;;;0.90;;
71975;SDS011;60680;52.182;5.398;2022-09-09T01:57:15;2.38;;;1.25;;
71975;SDS011;60680;52.182;5.398;2022-09-09T01:59:56;1.83;;;1.00;;
71975;SDS011;60680;52.182;5.398;2022-09-09T02:02:26;3.80;;;1.10;;
71975;SDS011;60680;52.182;5.398;2022-09-09T02:04:56;2.30;;;1.15;;
71975;SDS011;60680;52.182;5.398;2022-09-09T02:07:38;3.10;;;1.38;;
71975;SDS011;60680;52.182;5.398;2022-09-09T02:10:28;3.58;;;0.95;;
71975;SDS011;60680;52.182;5.398;2022-09-09T02:13:17;2.72;;;1.05;;
71975;SDS011;60680;52.182;5.398;2022-09-09T02:15:53;4.63;;;1.52;;
71975;SDS011;60680;52.182;5.398;2022-09-09T02:18:26;2.15;;;1.17;;
71975;SDS011;60680;52.182;5.398;2022-09-09T02:20:58;1.90;;;0.85;;
71975;SDS011;60680;52.182;5.398;2022-09-09T02:23:25;3.38;;;1.42;;
71975;SDS011;60680;52.182;5.398;2022-09-09T02:25:54;3.65;;;1.45;;
71975;SDS011;60680;52.182;5.398;2022-09-09T02:28:24;3.95;;;1.63;;
71975;SDS011;60680;52.182;5.398;2022-09-09T02:30:55;3.78;;;1.38;;
71975;SDS011;60680;52.182;5.398;2022-09-09T02:33:23;2.30;;;1.38;;
71975;SDS011;60680;52.182;5.398;2022-09-09T02:35:52;3.95;;;1.23;;
71975;SDS011;60680;52.182;5.398;2022-09-09T02:38:34;3.60;;;1.63;;
71975;SDS011;60680;52.182;5.398;2022-09-09T02:41:05;5.00;;;1.80;;
71975;SDS011;60680;52.182;5.398;2022-09-09T02:43:33;3.65;;;1.85;;
71975;SDS011;60680;52.182;5.398;2022-09-09T02:51:32;3.33;;;1.60;;
71975;SDS011;60680;52.182;5.398;2022-09-09T02:56:53;3.30;;;1.42;;
71975;SDS011;60680;52.182;5.398;2022-09-09T02:59:21;3.10;;;1.60;;
71975;SDS011;60680;52.182;5.398;2022-09-09T03:01:48;4.78;;;1.90;;
71975;SDS011;60680;52.182;5.398;2022-09-09T03:04:15;3.28;;;1.75;;
71975;SDS011;60680;52.182;5.398;2022-09-09T03:06:42;3.13;;;1.85;;
71975;SDS011;60680;52.182;5.398;2022-09-09T03:09:09;3.00;;;1.73;;
71975;SDS011;60680;52.182;5.398;2022-09-09T03:11:36;5.50;;;2.00;;
71975;SDS011;60680;52.182;5.398;2022-09-09T03:14:04;3.60;;;1.83;;
71975;SDS011;60680;52.182;5.398;2022-09-09T03:16:31;3.38;;;2.10;;
71975;SDS011;60680;52.182;5.398;2022-09-09T03:18:59;4.78;;;2.20;;
71975;SDS011;60680;52.182;5.398;2022-09-09T03:21:25;3.65;;;2.03;;
71975;SDS011;60680;52.182;5.398;2022-09-09T03:23:52;4.82;;;2.17;;
71975;SDS011;60680;52.182;5.398;2022-09-09T03:26:18;5.82;;;2.20;;
71975;SDS011;60680;52.182;5.398;2022-09-09T03:28:45;4.68;;;2.33;;
71975;SDS011;60680;52.182;5.398;2022-09-09T03:31:12;4.85;;;2.17;;
71975;SDS011;60680;52.182;5.398;2022-09-09T03:33:38;3.72;;;2.03;;
71975;SDS011;60680;52.182;5.398;2022-09-09T03:36:07;3.78;;;2.60;;
71975;SDS011;60680;52.182;5.398;2022-09-09T03:38:34;5.47;;;2.00;;
71975;SDS011;60680;52.182;5.398;2022-09-09T03:41:01;3.58;;;2.33;;
71975;SDS011;60680;52.182;5.398;2022-09-09T03:43:28;4.57;;;2.50;;
71975;SDS011;60680;52.182;5.398;2022-09-09T03:45:55;4.95;;;2.17;;
71975;SDS011;60680;52.182;5.398;2022-09-09T03:48:25;3.25;;;2.35;;
71975;SDS011;60680;52.182;5.398;2022-09-09T03:50:56;3.70;;;2.40;;
71975;SDS011;60680;52.182;5.398;2022-09-09T03:53:27;6.82;;;2.40;;
71975;SDS011;60680;52.182;5.398;2022-09-09T03:55:54;4.78;;;2.45;;
71975;SDS011;60680;52.182;5.398;2022-09-09T03:58:22;5.15;;;2.38;;
71975;SDS011;60680;52.182;5.398;2022-09-09T04:00:56;3.88;;;2.25;;
71975;SDS011;60680;52.182;5.398;2022-09-09T04:03:24;4.82;;;2.40;;
71975;SDS011;60680;52.182;5.398;2022-09-09T04:05:54;4.10;;;2.42;;
71975;SDS011;60680;52.182;5.398;2022-09-09T04:08:22;3.88;;;2.08;;
71975;SDS011;60680;52.182;5.398;2022-09-09T04:10:51;5.50;;;3.25;;
71975;SDS011;60680;52.182;5.398;2022-09-09T04:13:19;5.53;;;2.35;;
71975;SDS011;60680;52.182;5.398;2022-09-09T04:15:52;4.97;;;2.75;;
71975;SDS011;60680;52.182;5.398;2022-09-09T04:18:21;4.47;;;3.08;;
71975;SDS011;60680;52.182;5.398;2022-09-09T04:20:48;3.58;;;2.58;;
71975;SDS011;60680;52.182;5.398;2022-09-09T04:23:16;4.90;;;2.50;;
71975;SDS011;60680;52.182;5.398;2022-09-09T04:25:47;4.28;;;2.55;;
71975;SDS011;60680;52.182;5.398;2022-09-09T04:28:16;5.45;;;2.58;;
71975;SDS011;60680;52.182;5.398;2022-09-09T04:30:43;6.90;;;2.60;;
71975;SDS011;60680;52.182;5.398;2022-09-09T04:33:11;4.75;;;2.78;;
71975;SDS011;60680;52.182;5.398;2022-09-09T04:35:39;5.43;;;3.00;;
71975;SDS011;60680;52.182;5.398;2022-09-09T04:38:07;4.60;;;2.80;;
71975;SDS011;60680;52.182;5.398;2022-09-09T04:40:34;6.25;;;2.42;;
71975;SDS011;60680;52.182;5.398;2022-09-09T04:43:02;3.55;;;2.30;;
71975;SDS011;60680;52.182;5.398;2022-09-09T04:45:30;3.58;;;2.08;;
71975;SDS011;60680;52.182;5.398;2022-09-09T04:47:57;6.15;;;2.90;;
71975;SDS011;60680;52.182;5.398;2022-09-09T04:50:23;6.43;;;2.77;;
71975;SDS011;60680;52.182;5.398;2022-09-09T04:52:51;4.45;;;2.38;;
71975;SDS011;60680;52.182;5.398;2022-09-09T04:55:17;4.00;;;2.50;;
71975;SDS011;60680;52.182;5.398;2022-09-09T04:57:44;8.07;;;2.50;;
71975;SDS011;60680;52.182;5.398;2022-09-09T05:00:11;5.03;;;2.47;;
71975;SDS011;60680;52.182;5.398;2022-09-09T05:02:39;5.03;;;2.40;;
71975;SDS011;60680;52.182;5.398;2022-09-09T05:05:07;5.47;;;1.98;;
71975;SDS011;60680;52.182;5.398;2022-09-09T05:07:34;6.72;;;2.33;;
71975;SDS011;60680;52.182;5.398;2022-09-09T05:10:01;3.75;;;2.20;;
71975;SDS011;60680;52.182;5.398;2022-09-09T05:12:32;5.30;;;2.20;;
71975;SDS011;60680;52.182;5.398;2022-09-09T05:14:59;4.93;;;2.25;;
71975;SDS011;60680;52.182;5.398;2022-09-09T05:17:26;5.28;;;2.38;;
71975;SDS011;60680;52.182;5.398;2022-09-09T05:19:54;4.90;;;2.22;;
71975;SDS011;60680;52.182;5.398;2022-09-09T05:22:20;3.88;;;1.80;;
71975;SDS011;60680;52.182;5.398;2022-09-09T05:24:49;4.35;;;2.22;;
71975;SDS011;60680;52.182;5.398;2022-09-09T05:27:19;4.38;;;2.13;;
71975;SDS011;60680;52.182;5.398;2022-09-09T05:29:45;6.00;;;2.00;;
71975;SDS011;60680;52.182;5.398;2022-09-09T05:32:12;5.78;;;1.90;;
71975;SDS011;60680;52.182;5.398;2022-09-09T05:34:41;6.40;;;1.90;;
71975;SDS011;60680;52.182;5.398;2022-09-09T05:37:07;4.43;;;2.03;;
71975;SDS011;60680;52.182;5.398;2022-09-09T05:39:34;6.88;;;2.03;;
71975;SDS011;60680;52.182;5.398;2022-09-09T05:42:03;5.38;;;1.90;;
71975;SDS011;60680;52.182;5.398;2022-09-09T05:44:30;3.63;;;1.92;;
71975;SDS011;60680;52.182;5.398;2022-09-09T05:46:57;5.47;;;2.10;;
71975;SDS011;60680;52.182;5.398;2022-09-09T05:49:24;7.78;;;2.08;;
71975;SDS011;60680;52.182;5.398;2022-09-09T05:51:50;4.95;;;1.92;;
71975;SDS011;60680;52.182;5.398;2022-09-09T05:54:17;4.40;;;1.80;;
71975;SDS011;60680;52.182;5.398;2022-09-09T05:56:43;5.72;;;2.60;;
71975;SDS011;60680;52.182;5.398;2022-09-09T05:59:16;5.80;;;2.05;;
71975;SDS011;60680;52.182;5.398;2022-09-09T06:01:43;5.55;;;1.83;;
71975;SDS011;60680;52.182;5.398;2022-09-09T06:04:11;7.90;;;1.92;;
71975;SDS011;60680;52.182;5.398;2022-09-09T06:06:38;5.45;;;2.30;;
71975;SDS011;60680;52.182;5.398;2022-09-09T06:09:06;3.25;;;1.75;;
71975;SDS011;60680;52.182;5.398;2022-09-09T06:11:36;8.40;;;2.03;;
71975;SDS011;60680;52.182;5.398;2022-09-09T06:14:05;4.50;;;1.73;;
71975;SDS011;60680;52.182;5.398;2022-09-09T06:16:32;3.05;;;1.65;;
71975;SDS011;60680;52.182;5.398;2022-09-09T06:19:00;5.75;;;2.20;;
71975;SDS011;60680;52.182;5.398;2022-09-09T06:21:29;4.85;;;2.28;;
71975;SDS011;60680;52.182;5.398;2022-09-09T06:23:57;5.10;;;2.05;;
71975;SDS011;60680;52.182;5.398;2022-09-09T06:26:30;4.00;;;1.75;;
71975;SDS011;60680;52.182;5.398;2022-09-09T06:28:58;6.00;;;1.47;;
71975;SDS011;60680;52.182;5.398;2022-09-09T06:31:26;4.68;;;2.13;;
71975;SDS011;60680;52.182;5.398;2022-09-09T06:33:58;6.82;;;2.00;;
71975;SDS011;60680;52.182;5.398;2022-09-09T06:36:26;5.40;;;2.13;;
71975;SDS011;60680;52.182;5.398;2022-09-09T06:38:54;7.25;;;2.35;;
71975;SDS011;60680;52.182;5.398;2022-09-09T06:41:22;7.13;;;2.27;;
71975;SDS011;60680;52.182;5.398;2022-09-09T06:43:54;8.93;;;1.75;;
71975;SDS011;60680;52.182;5.398;2022-09-09T06:46:22;5.78;;;1.70;;
71975;SDS011;60680;52.182;5.398;2022-09-09T06:48:54;6.18;;;1.50;;
71975;SDS011;60680;52.182;5.398;2022-09-09T06:51:23;3.55;;;1.30;;
71975;SDS011;60680;52.182;5.398;2022-09-09T06:53:52;4.50;;;1.53;;
71975;SDS011;60680;52.182;5.398;2022-09-09T06:56:27;7.25;;;1.67;;
71975;SDS011;60680;52.182;5.398;2022-09-09T06:58:59;5.82;;;1.77;;
71975;SDS011;60680;52.182;5.398;2022-09-09T07:01:28;7.20;;;2.13;;
71975;SDS011;60680;52.182;5.398;2022-09-09T07:03:58;4.30;;;1.38;;
71975;SDS011;60680;52.182;5.398;2022-09-09T07:06:29;5.07;;;1.27;;
71975;SDS011;60680;52.182;5.398;2022-09-09T07:08:58;4.28;;;1.30;;
71975;SDS011;60680;52.182;5.398;2022-09-09T07:11:28;3.65;;;1.17;;
71975;SDS011;60680;52.182;5.398;2022-09-09T07:13:59;6.55;;;1.55;;
71975;SDS011;60680;52.182;5.398;2022-09-09T07:16:26;6.40;;;1.20;;
71975;SDS011;60680;52.182;5.398;2022-09-09T07:18:54;4.50;;;1.10;;
71975;SDS011;60680;52.182;5.398;2022-09-09T07:21:24;6.35;;;1.25;;
71975;SDS011;60680;52.182;5.398;2022-09-09T07:23:52;3.70;;;1.20;;
71975;SDS011;60680;52.182;5.398;2022-09-09T07:26:21;4.43;;;1.10;;
71975;SDS011;60680;52.182;5.398;2022-09-09T07:28:49;10.82;;;1.92;;
71975;SDS011;60680;52.182;5.398;2022-09-09T07:31:21;5.10;;;1.30;;
71975;SDS011;60680;52.182;5.398;2022-09-09T07:33:53;5.35;;;1.20;;
71975;SDS011;60680;52.182;5.398;2022-09-09T07:38:58;8.70;;;1.27;;
71975;SDS011;60680;52.182;5.398;2022-09-09T07:41:28;5.47;;;1.40;;
71975;SDS011;60680;52.182;5.398;2022-09-09T07:44:03;6.80;;;2.10;;
71975;SDS011;60680;52.182;5.398;2022-09-09T07:46:34;5.32;;;1.67;;
71975;SDS011;60680;52.182;5.398;2022-09-09T07:49:01;7.55;;;1.33;;
71975;SDS011;60680;52.182;5.398;2022-09-09T07:51:31;7.55;;;1.50;;
71975;SDS011;60680;52.182;5.398;2022-09-09T07:54:00;6.00;;;1.65;;
71975;SDS011;60680;52.182;5.398;2022-09-09T07:56:29;5.27;;;1.30;;
71975;SDS011;60680;52.182;5.398;2022-09-09T07:58:56;6.53;;;1.50;;
71975;SDS011;60680;52.182;5.398;2022-09-09T08:01:27;3.25;;;1.05;;
71975;SDS011;60680;52.182;5.398;2022-09-09T08:03:59;4.43;;;1.25;;
71975;SDS011;60680;52.182;5.398;2022-09-09T08:06:31;4.20;;;1.42;;
71975;SDS011;60680;52.182;5.398;2022-09-09T08:09:03;9.90;;;1.40;;
71975;SDS011;60680;52.182;5.398;2022-09-09T08:11:31;4.40;;;1.20;;
71975;SDS011;60680;52.182;5.398;2022-09-09T08:14:04;5.00;;;1.20;;
71975;SDS011;60680;52.182;5.398;2022-09-09T08:16:35;4.13;;;1.10;;
71975;SDS011;60680;52.182;5.398;2022-09-09T08:19:04;3.90;;;1.40;;
71975;SDS011;60680;52.182;5.398;2022-09-09T08:21:33;4.17;;;1.23;;
71975;SDS011;60680;52.182;5.398;2022-09-09T08:24:03;4.68;;;1.35;;
71975;SDS011;60680;52.182;5.398;2022-09-09T08:26:32;4.50;;;1.20;;
71975;SDS011;60680;52.182;5.398;2022-09-09T08:29:01;4.72;;;1.60;;
71975;SDS011;60680;52.182;5.398;2022-09-09T08:31:36;4.95;;;1.20;;
71975;SDS011;60680;52.182;5.398;2022-09-09T08:34:05;4.30;;;1.20;;
71975;SDS011;60680;52.182;5.398;2022-09-09T08:36:34;4.38;;;1.00;;
71975;SDS011;60680;52.182;5.398;2022-09-09T08:39:04;5.22;;;1.58;;
71975;SDS011;60680;52.182;5.398;2022-09-09T08:47:28;3.90;;;0.90;;
71975;SDS011;60680;52.182;5.398;2022-09-09T08:52:52;5.80;;;1.00;;
71975;SDS011;60680;52.182;5.398;2022-09-09T08:58:22;4.18;;;0.98;;
71975;SDS011;60680;52.182;5.398;2022-09-09T09:11:39;7.93;;;1.42;;
71975;SDS011;60680;52.182;5.398;2022-09-09T09:16:54;6.05;;;1.10;;
71975;SDS011;60680;52.182;5.398;2022-09-09T09:19:22;3.50;;;1.10;;
71975;SDS011;60680;52.182;5.398;2022-09-09T09:21:53;4.80;;;1.30;;
71975;SDS011;60680;52.182;5.398;2022-09-09T09:27:47;7.30;;;1.13;;
71975;SDS011;60680;52.182;5.398;2022-09-09T09:30:22;5.50;;;1.50;;
71975;SDS011;60680;52.182;5.398;2022-09-09T09:32:58;6.97;;;1.30;;
71975;SDS011;60680;52.182;5.398;2022-09-09T09:35:28;3.90;;;1.35;;
71975;SDS011;60680;52.182;5.398;2022-09-09T09:37:55;5.78;;;1.40;;
71975;SDS011;60680;52.182;5.398;2022-09-09T09:40:48;5.57;;;1.23;;
71975;SDS011;60680;52.182;5.398;2022-09-09T09:43:20;5.20;;;1.00;;
71975;SDS011;60680;52.182;5.398;2022-09-09T09:45:51;4.72;;;1.02;;
71975;SDS011;60680;52.182;5.398;2022-09-09T09:48:38;5.85;;;1.27;;
71975;SDS011;60680;52.182;5.398;2022-09-09T09:51:07;3.85;;;1.10;;
71975;SDS011;60680;52.182;5.398;2022-09-09T09:53:37;4.87;;;1.20;;
71975;SDS011;60680;52.182;5.398;2022-09-09T09:56:05;5.07;;;1.10;;
71975;SDS011;60680;52.182;5.398;2022-09-09T09:58:55;5.63;;;0.98;;
71975;SDS011;60680;52.182;5.398;2022-09-09T10:01:26;4.30;;;1.33;;
71975;SDS011;60680;52.182;5.398;2022-09-09T10:04:00;8.30;;;1.50;;
71975;SDS011;60680;52.182;5.398;2022-09-09T10:06:38;8.90;;;1.77;;
71975;SDS011;60680;52.182;5.398;2022-09-09T10:09:22;6.13;;;1.27;;
71975;SDS011;60680;52.182;5.398;2022-09-09T10:22:28;7.75;;;1.10;;
71975;SDS011;60680;52.182;5.398;2022-09-09T10:38:47;3.22;;;0.90;;
71975;SDS011;60680;52.182;5.398;2022-09-09T10:52:17;4.60;;;1.00;;
71975;SDS011;60680;52.182;5.398;2022-09-09T10:57:40;4.40;;;1.10;;
71975;SDS011;60680;52.182;5.398;2022-09-09T11:00:21;4.90;;;1.40;;
71975;SDS011;60680;52.182;5.398;2022-09-09T11:02:52;3.30;;;0.85;;
71975;SDS011;60680;52.182;5.398;2022-09-09T11:05:30;5.00;;;1.00;;
71975;SDS011;60680;52.182;5.398;2022-09-09T11:08:21;5.13;;;0.88;;
71975;SDS011;60680;52.182;5.398;2022-09-09T11:16:23;3.60;;;1.17;;
71975;SDS011;60680;52.182;5.398;2022-09-09T11:18:53;6.07;;;1.10;;
71975;SDS011;60680;52.182;5.398;2022-09-09T11:21:30;3.80;;;1.10;;
71975;SDS011;60680;52.182;5.398;2022-09-09T11:24:04;3.38;;;1.13;;
71975;SDS011;60680;52.182;5.398;2022-09-09T11:26:38;4.43;;;1.20;;
71975;SDS011;60680;52.182;5.398;2022-09-09T11:35:37;3.50;;;1.77;;
71975;SDS011;60680;52.182;5.398;2022-09-09T11:38:32;5.50;;;1.20;;
71975;SDS011;60680;52.182;5.398;2022-09-09T11:41:10;5.07;;;1.10;;
71975;SDS011;60680;52.182;5.398;2022-09-09T11:43:47;3.72;;;1.25;;
71975;SDS011;60680;52.182;5.398;2022-09-09T11:46:20;4.05;;;1.20;;
71975;SDS011;60680;52.182;5.398;2022-09-09T11:49:01;6.72;;;1.13;;
71975;SDS011;60680;52.182;5.398;2022-09-09T11:51:30;4.68;;;1.08;;
71975;SDS011;60680;52.182;5.398;2022-09-09T11:53:59;4.90;;;1.20;;
71975;SDS011;60680;52.182;5.398;2022-09-09T11:59:04;3.35;;;0.98;;
71975;SDS011;60680;52.182;5.398;2022-09-09T12:06:48;3.87;;;1.30;;
71975;SDS011;60680;52.182;5.398;2022-09-09T12:11:49;3.20;;;1.30;;
71975;SDS011;60680;52.182;5.398;2022-09-09T12:14:54;4.25;;;1.10;;
71975;SDS011;60680;52.182;5.398;2022-09-09T12:17:21;6.15;;;1.10;;
71975;SDS011;60680;52.182;5.398;2022-09-09T12:19:59;2.17;;;0.87;;
71975;SDS011;60680;52.182;5.398;2022-09-09T12:33:44;4.67;;;1.17;;
71975;SDS011;60680;52.182;5.398;2022-09-09T12:36:17;5.72;;;1.27;;
71975;SDS011;60680;52.182;5.398;2022-09-09T12:38:47;3.65;;;1.17;;
71975;SDS011;60680;52.182;5.398;2022-09-09T12:41:21;2.97;;;1.10;;
71975;SDS011;60680;52.182;5.398;2022-09-09T12:43:49;3.88;;;1.15;;
71975;SDS011;60680;52.182;5.398;2022-09-09T12:49:03;2.92;;;1.10;;
71975;SDS011;60680;52.182;5.398;2022-09-09T12:51:30;5.50;;;1.48;;
71975;SDS011;60680;52.182;5.398;2022-09-09T12:53:58;5.38;;;1.60;;
71975;SDS011;60680;52.182;5.398;2022-09-09T12:56:30;4.82;;;1.85;;
71975;SDS011;60680;52.182;5.398;2022-09-09T12:58:59;2.33;;;1.37;;
71975;SDS011;60680;52.182;5.398;2022-09-09T13:06:31;5.88;;;1.55;;
71975;SDS011;60680;52.182;5.398;2022-09-09T13:08:59;5.15;;;1.45;;
71975;SDS011;60680;52.182;5.398;2022-09-09T13:11:37;3.53;;;1.40;;
71975;SDS011;60680;52.182;5.398;2022-09-09T13:14:42;5.05;;;1.80;;
71975;SDS011;60680;52.182;5.398;2022-09-09T13:17:04;3.55;;;1.60;;
71975;SDS011;60680;52.182;5.398;2022-09-09T13:19:34;2.60;;;1.10;;
71975;SDS011;60680;52.182;5.398;2022-09-09T13:27:37;2.80;;;0.90;;
71975;SDS011;60680;52.182;5.398;2022-09-09T13:30:21;4.70;;;1.48;;
71975;SDS011;60680;52.182;5.398;2022-09-09T13:35:35;5.50;;;1.20;;
71975;SDS011;60680;52.182;5.398;2022-09-09T13:38:14;2.77;;;1.27;;
71975;SDS011;60680;52.182;5.398;2022-09-09T13:41:24;2.78;;;1.50;;
71975;SDS011;60680;52.182;5.398;2022-09-09T13:43:36;3.80;;;1.40;;
71975;SDS011;60680;52.182;5.398;2022-09-09T13:49:02;5.60;;;1.60;;
71975;SDS011;60680;52.182;5.398;2022-09-09T13:51:45;4.47;;;1.30;;
71975;SDS011;60680;52.182;5.398;2022-09-09T13:54:17;3.60;;;1.50;;
71975;SDS011;60680;52.182;5.398;2022-09-09T13:56:45;3.20;;;1.30;;
71975;SDS011;60680;52.182;5.398;2022-09-09T13:59:13;4.78;;;1.40;;
71975;SDS011;60680;52.182;5.398;2022-09-09T14:01:45;6.20;;;2.00;;
71975;SDS011;60680;52.182;5.398;2022-09-09T14:04:13;3.47;;;1.43;;
71975;SDS011;60680;52.182;5.398;2022-09-09T14:06:39;4.65;;;1.40;;
71975;SDS011;60680;52.182;5.398;2022-09-09T14:09:06;3.15;;;1.60;;
71975;SDS011;60680;52.182;5.398;2022-09-09T14:11:36;5.18;;;1.60;;
71975;SDS011;60680;52.182;5.398;2022-09-09T14:14:03;5.00;;;1.50;;
71975;SDS011;60680;52.182;5.398;2022-09-09T14:16:29;3.00;;;1.60;;
71975;SDS011;60680;52.182;5.398;2022-09-09T14:18:56;2.63;;;1.30;;
71975;SDS011;60680;52.182;5.398;2022-09-09T14:21:23;4.35;;;1.42;;
71975;SDS011;60680;52.182;5.398;2022-09-09T14:23:50;5.80;;;1.23;;
71975;SDS011;60680;52.182;5.398;2022-09-09T14:26:16;3.20;;;1.33;;
71975;SDS011;60680;52.182;5.398;2022-09-09T14:28:44;3.83;;;1.20;;
71975;SDS011;60680;52.182;5.398;2022-09-09T14:31:21;2.97;;;1.27;;
71975;SDS011;60680;52.182;5.398;2022-09-09T14:33:48;3.92;;;1.15;;
71975;SDS011;60680;52.182;5.398;2022-09-09T14:36:16;5.53;;;1.70;;
71975;SDS011;60680;52.182;5.398;2022-09-09T14:38:43;5.32;;;1.80;;
71975;SDS011;60680;52.182;5.398;2022-09-09T14:41:11;2.93;;;1.33;;
71975;SDS011;60680;52.182;5.398;2022-09-09T14:43:39;3.40;;;1.50;;
71975;SDS011;60680;52.182;5.398;2022-09-09T14:48:37;4.88;;;2.08;;
71975;SDS011;60680;52.182;5.398;2022-09-09T14:51:12;5.10;;;1.50;;
71975;SDS011;60680;52.182;5.398;2022-09-09T14:53:41;4.27;;;1.57;;
71975;SDS011;60680;52.182;5.398;2022-09-09T14:56:12;4.78;;;1.67;;
71975;SDS011;60680;52.182;5.398;2022-09-09T14:58:43;4.65;;;1.95;;
71975;SDS011;60680;52.182;5.398;2022-09-09T15:01:11;6.38;;;1.60;;
71975;SDS011;60680;52.182;5.398;2022-09-09T15:03:40;4.68;;;2.00;;
71975;SDS011;60680;52.182;5.398;2022-09-09T15:06:10;5.97;;;2.37;;
71975;SDS011;60680;52.182;5.398;2022-09-09T15:08:38;4.53;;;2.03;;
71975;SDS011;60680;52.182;5.398;2022-09-09T15:11:08;5.25;;;2.10;;
71975;SDS011;60680;52.182;5.398;2022-09-09T15:13:36;4.45;;;2.00;;
71975;SDS011;60680;52.182;5.398;2022-09-09T15:16:04;5.70;;;1.90;;
71975;SDS011;60680;52.182;5.398;2022-09-09T15:18:32;3.23;;;1.83;;
71975;SDS011;60680;52.182;5.398;2022-09-09T15:20:59;5.03;;;1.73;;
71975;SDS011;60680;52.182;5.398;2022-09-09T15:23:30;4.60;;;1.95;;
71975;SDS011;60680;52.182;5.398;2022-09-09T15:25:58;3.67;;;1.30;;
71975;SDS011;60680;52.182;5.398;2022-09-09T15:28:25;2.80;;;1.00;;
71975;SDS011;60680;52.182;5.398;2022-09-09T15:30:52;2.37;;;1.20;;
71975;SDS011;60680;52.182;5.398;2022-09-09T15:33:20;2.55;;;0.85;;
71975;SDS011;60680;52.182;5.398;2022-09-09T15:35:50;3.33;;;0.90;;
71975;SDS011;60680;52.182;5.398;2022-09-09T15:38:18;3.03;;;0.80;;
71975;SDS011;60680;52.182;5.398;2022-09-09T15:40:52;2.15;;;0.80;;
71975;SDS011;60680;52.182;5.398;2022-09-09T15:43:20;3.50;;;0.97;;
71975;SDS011;60680;52.182;5.398;2022-09-09T15:45:49;2.28;;;0.85;;
71975;SDS011;60680;52.182;5.398;2022-09-09T15:48:29;1.20;;;0.63;;
71975;SDS011;60680;52.182;5.398;2022-09-09T15:51:04;2.70;;;0.55;;
71975;SDS011;60680;52.182;5.398;2022-09-09T15:53:53;3.58;;;0.45;;
71975;SDS011;60680;52.182;5.398;2022-09-09T15:56:22;2.20;;;1.10;;
71975;SDS011;60680;52.182;5.398;2022-09-09T15:58:51;3.05;;;0.65;;
71975;SDS011;60680;52.182;5.398;2022-09-09T16:01:18;1.20;;;0.57;;
71975;SDS011;60680;52.182;5.398;2022-09-09T16:03:46;5.90;;;0.63;;
71975;SDS011;60680;52.182;5.398;2022-09-09T16:06:14;2.55;;;0.70;;
71975;SDS011;60680;52.182;5.398;2022-09-09T16:08:42;3.10;;;0.83;;
71975;SDS011;60680;52.182;5.398;2022-09-09T16:11:12;2.30;;;0.90;;
71975;SDS011;60680;52.182;5.398;2022-09-09T16:13:43;1.75;;;0.73;;
71975;SDS011;60680;52.182;5.398;2022-09-09T16:19:33;1.63;;;1.10;;
71975;SDS011;60680;52.182;5.398;2022-09-09T16:22:01;2.53;;;1.00;;
71975;SDS011;60680;52.182;5.398;2022-09-09T16:24:44;2.28;;;1.00;;
71975;SDS011;60680;52.182;5.398;2022-09-09T16:27:17;1.98;;;1.05;;
71975;SDS011;60680;52.182;5.398;2022-09-09T16:29:44;2.20;;;0.75;;
71975;SDS011;60680;52.182;5.398;2022-09-09T16:32:23;2.28;;;1.00;;
71975;SDS011;60680;52.182;5.398;2022-09-09T16:35:24;2.30;;;0.83;;
71975;SDS011;60680;52.182;5.398;2022-09-09T16:37:51;5.65;;;1.58;;
71975;SDS011;60680;52.182;5.398;2022-09-09T16:40:17;1.52;;;0.70;;
71975;SDS011;60680;52.182;5.398;2022-09-09T16:42:44;5.07;;;0.90;;
71975;SDS011;60680;52.182;5.398;2022-09-09T16:45:11;1.42;;;0.80;;
71975;SDS011;60680;52.182;5.398;2022-09-09T16:47:39;1.80;;;0.77;;
71975;SDS011;60680;52.182;5.398;2022-09-09T16:50:06;2.40;;;1.25;;
71975;SDS011;60680;52.182;5.398;2022-09-09T16:52:33;3.22;;;0.80;;
71975;SDS011;60680;52.182;5.398;2022-09-09T16:55:00;2.40;;;0.88;;
71975;SDS011;60680;52.182;5.398;2022-09-09T16:57:26;2.40;;;1.00;;
71975;SDS011;60680;52.182;5.398;2022-09-09T16:59:57;2.00;;;0.90;;
71975;SDS011;60680;52.182;5.398;2022-09-09T17:02:25;2.97;;;0.90;;
71975;SDS011;60680;52.182;5.398;2022-09-09T17:04:51;3.30;;;1.00;;
71975;SDS011;60680;52.182;5.398;2022-09-09T17:07:18;2.97;;;0.95;;
71975;SDS011;60680;52.182;5.398;2022-09-09T17:09:45;2.58;;;1.23;;
71975;SDS011;60680;52.182;5.398;2022-09-09T17:12:12;4.43;;;1.23;;
71975;SDS011;60680;52.182;5.398;2022-09-09T17:14:40;5.50;;;1.05;;
71975;SDS011;60680;52.182;5.398;2022-09-09T17:17:06;3.72;;;1.15;;
71975;SDS011;60680;52.182;5.398;2022-09-09T17:19:53;3.90;;;0.90;;
71975;SDS011;60680;52.182;5.398;2022-09-09T17:22:20;3.83;;;1.10;;
71975;SDS011;60680;52.182;5.398;2022-09-09T17:24:47;3.20;;;1.13;;
71975;SDS011;60680;52.182;5.398;2022-09-09T17:27:14;4.30;;;1.35;;
71975;SDS011;60680;52.182;5.398;2022-09-09T17:29:40;2.45;;;0.93;;
71975;SDS011;60680;52.182;5.398;2022-09-09T17:32:06;4.10;;;0.90;;
71975;SDS011;60680;52.182;5.398;2022-09-09T17:34:34;3.65;;;1.20;;
71975;SDS011;60680;52.182;5.398;2022-09-09T17:37:01;2.80;;;1.40;;
71975;SDS011;60680;52.182;5.398;2022-09-09T17:39:27;3.53;;;1.60;;
71975;SDS011;60680;52.182;5.398;2022-09-09T17:41:53;3.28;;;1.48;;
71975;SDS011;60680;52.182;5.398;2022-09-09T17:44:20;2.38;;;1.50;;
71975;SDS011;60680;52.182;5.398;2022-09-09T17:46:47;4.03;;;1.65;;